Terminal Aerodrome Forecast
Issued by NWS

Home | Current Version | Previous Version | Text Only | Print | Product List | Glossary On
Versions: 1 2 3 4 5 6 7 8 9 10 11 12 13 14 15 16 17
166
FTUS43 KAPX 272320
TAFTVC
TAF
KTVC 272320Z 2800/2824 VRB03KT P6SM BKN200
     FM280700 VRB03KT P6SM BKN110
     FM281200 VRB03KT P6SM -SHRA BKN060
     FM281800 25005KT 5SM SHRA OVC040
     FM282100 36004KT P6SM SHRA BKN030=

USA.gov is the U.S. government's official web portal to all federal, state and local government web resources and services.